KCRS/CRS METAR and TAF weather

Enter ICAO airport designator
Station Type Date Time Source
KCRS METAR 2019/12/14 18:53 UTC NOAA

KCRS 141853Z AUTO 00000KT 10SM CLR 17/07 A2986 RMK AO2 SLP110 T01720067


Station Type Date Time Source
KCRS Decoded METAR 2019/12/14 18:53 UTC NOAA

CORSICANA AIRFIELD, TX, United States (KCRS) 32-01N 96-23W 133M
Dec 14, 2019 - 01:53 PM EST / 2019.12.14 1853 UTC
Wind: Calm:0
Visibility: 10 mile(s):0
Sky conditions: clear
Temperature: 63.0 F (17.2 C)
Dew Point: 44.1 F (6.7 C)
Relative Humidity: 50%
Pressure (altimeter): 29.86 in. Hg (1011 hPa)
ob: KCRS 141853Z AUTO 00000KT 10SM CLR 17/07 A2986 RMK AO2 SLP110 T01720067
cycle: 19

Station Type Date Time Source
KCRS TAF UTC NOAA

Error!

Example: see airport list